sensor_id;sensor_type;location;lat;lon;timestamp;P1;durP1;ratioP1;P2;durP2;ratioP2
49416;SDS011;35290;39.550;8.786;2023-05-07T00:07:31;6.95;;;4.70;;
49416;SDS011;35290;39.550;8.786;2023-05-07T00:09:57;7.03;;;5.00;;
49416;SDS011;35290;39.550;8.786;2023-05-07T00:12:23;7.38;;;4.82;;
49416;SDS011;35290;39.550;8.786;2023-05-07T00:14:49;7.15;;;4.75;;
49416;SDS011;35290;39.550;8.786;2023-05-07T00:17:15;4.82;;;4.20;;
49416;SDS011;35290;39.550;8.786;2023-05-07T00:19:40;6.95;;;4.32;;
49416;SDS011;35290;39.550;8.786;2023-05-07T00:22:08;6.32;;;4.82;;
49416;SDS011;35290;39.550;8.786;2023-05-07T00:24:33;6.45;;;4.80;;
49416;SDS011;35290;39.550;8.786;2023-05-07T00:26:59;6.85;;;4.90;;
49416;SDS011;35290;39.550;8.786;2023-05-07T00:29:25;8.88;;;5.00;;
49416;SDS011;35290;39.550;8.786;2023-05-07T00:31:51;9.18;;;5.07;;
49416;SDS011;35290;39.550;8.786;2023-05-07T00:34:20;6.72;;;4.82;;
49416;SDS011;35290;39.550;8.786;2023-05-07T00:36:46;6.28;;;4.70;;
49416;SDS011;35290;39.550;8.786;2023-05-07T00:39:11;6.45;;;4.60;;
49416;SDS011;35290;39.550;8.786;2023-05-07T00:41:37;8.57;;;5.35;;
49416;SDS011;35290;39.550;8.786;2023-05-07T00:44:03;6.45;;;4.55;;
49416;SDS011;35290;39.550;8.786;2023-05-07T00:46:30;5.15;;;4.45;;
49416;SDS011;35290;39.550;8.786;2023-05-07T00:48:56;6.47;;;4.72;;
49416;SDS011;35290;39.550;8.786;2023-05-07T00:51:23;8.00;;;4.55;;
49416;SDS011;35290;39.550;8.786;2023-05-07T00:53:51;6.93;;;4.55;;
49416;SDS011;35290;39.550;8.786;2023-05-07T00:59:21;7.18;;;4.50;;
49416;SDS011;35290;39.550;8.786;2023-05-07T01:01:47;7.97;;;4.20;;
49416;SDS011;35290;39.550;8.786;2023-05-07T01:04:13;7.82;;;4.63;;
49416;SDS011;35290;39.550;8.786;2023-05-07T01:15:09;4.90;;;3.90;;
49416;SDS011;35290;39.550;8.786;2023-05-07T01:17:36;4.80;;;4.30;;
49416;SDS011;35290;39.550;8.786;2023-05-07T01:20:01;5.28;;;4.38;;
49416;SDS011;35290;39.550;8.786;2023-05-07T01:22:31;5.32;;;4.10;;
49416;SDS011;35290;39.550;8.786;2023-05-07T01:28:00;7.72;;;3.80;;
49416;SDS011;35290;39.550;8.786;2023-05-07T01:30:26;6.55;;;3.70;;
49416;SDS011;35290;39.550;8.786;2023-05-07T01:32:56;5.85;;;3.67;;
49416;SDS011;35290;39.550;8.786;2023-05-07T01:43:56;7.55;;;3.53;;
49416;SDS011;35290;39.550;8.786;2023-05-07T01:57:19;7.18;;;4.22;;
49416;SDS011;35290;39.550;8.786;2023-05-07T01:59:46;7.10;;;4.05;;
49416;SDS011;35290;39.550;8.786;2023-05-07T02:02:12;6.82;;;4.80;;
49416;SDS011;35290;39.550;8.786;2023-05-07T02:07:40;6.43;;;4.45;;
49416;SDS011;35290;39.550;8.786;2023-05-07T02:18:37;4.97;;;3.90;;
49416;SDS011;35290;39.550;8.786;2023-05-07T02:21:03;9.57;;;4.20;;
49416;SDS011;35290;39.550;8.786;2023-05-07T02:23:29;5.13;;;3.67;;
49416;SDS011;35290;39.550;8.786;2023-05-07T02:28:58;5.55;;;3.40;;
49416;SDS011;35290;39.550;8.786;2023-05-07T02:31:23;6.60;;;3.13;;
49416;SDS011;35290;39.550;8.786;2023-05-07T02:33:49;4.75;;;2.90;;
49416;SDS011;35290;39.550;8.786;2023-05-07T02:41:43;4.50;;;2.72;;
49416;SDS011;35290;39.550;8.786;2023-05-07T02:44:09;4.20;;;2.60;;
49416;SDS011;35290;39.550;8.786;2023-05-07T02:46:35;4.32;;;2.50;;
49416;SDS011;35290;39.550;8.786;2023-05-07T02:49:01;2.72;;;2.42;;
49416;SDS011;35290;39.550;8.786;2023-05-07T02:51:27;3.13;;;2.50;;
49416;SDS011;35290;39.550;8.786;2023-05-07T02:53:53;2.80;;;1.92;;
49416;SDS011;35290;39.550;8.786;2023-05-07T02:59:23;4.00;;;2.42;;
49416;SDS011;35290;39.550;8.786;2023-05-07T03:01:50;2.55;;;2.35;;
49416;SDS011;35290;39.550;8.786;2023-05-07T03:04:16;3.42;;;2.20;;
49416;SDS011;35290;39.550;8.786;2023-05-07T03:12:13;3.42;;;2.30;;
49416;SDS011;35290;39.550;8.786;2023-05-07T03:17:42;2.83;;;2.13;;
49416;SDS011;35290;39.550;8.786;2023-05-07T03:23:10;2.42;;;2.13;;
49416;SDS011;35290;39.550;8.786;2023-05-07T03:28:39;4.10;;;2.15;;
49416;SDS011;35290;39.550;8.786;2023-05-07T03:31:05;2.30;;;2.10;;
49416;SDS011;35290;39.550;8.786;2023-05-07T03:33:32;2.67;;;2.25;;
49416;SDS011;35290;39.550;8.786;2023-05-07T03:39:01;14.07;;;9.13;;
49416;SDS011;35290;39.550;8.786;2023-05-07T03:41:27;12.00;;;7.50;;
49416;SDS011;35290;39.550;8.786;2023-05-07T03:43:54;8.82;;;5.07;;
49416;SDS011;35290;39.550;8.786;2023-05-07T03:49:24;7.30;;;3.13;;
49416;SDS011;35290;39.550;8.786;2023-05-07T03:54:52;18.67;;;9.18;;
49416;SDS011;35290;39.550;8.786;2023-05-07T03:57:19;20.75;;;11.95;;
49416;SDS011;35290;39.550;8.786;2023-05-07T03:59:45;23.83;;;13.48;;
49416;SDS011;35290;39.550;8.786;2023-05-07T04:02:10;23.90;;;14.20;;
49416;SDS011;35290;39.550;8.786;2023-05-07T04:04:36;20.50;;;12.52;;
49416;SDS011;35290;39.550;8.786;2023-05-07T04:07:02;22.13;;;14.20;;
49416;SDS011;35290;39.550;8.786;2023-05-07T04:09:28;24.35;;;16.27;;
49416;SDS011;35290;39.550;8.786;2023-05-07T04:11:54;25.63;;;14.35;;
49416;SDS011;35290;39.550;8.786;2023-05-07T04:14:20;18.27;;;12.38;;
49416;SDS011;35290;39.550;8.786;2023-05-07T04:19:49;10.20;;;6.15;;
49416;SDS011;35290;39.550;8.786;2023-05-07T04:25:18;10.27;;;4.30;;
49416;SDS011;35290;39.550;8.786;2023-05-07T04:27:44;7.82;;;4.28;;
49416;SDS011;35290;39.550;8.786;2023-05-07T04:30:10;6.25;;;3.60;;
49416;SDS011;35290;39.550;8.786;2023-05-07T04:32:36;4.18;;;3.00;;
49416;SDS011;35290;39.550;8.786;2023-05-07T04:35:02;7.10;;;3.05;;
49416;SDS011;35290;39.550;8.786;2023-05-07T04:37:28;5.88;;;3.22;;
49416;SDS011;35290;39.550;8.786;2023-05-07T04:39:54;7.88;;;3.05;;
49416;SDS011;35290;39.550;8.786;2023-05-07T04:42:20;6.88;;;3.15;;
49416;SDS011;35290;39.550;8.786;2023-05-07T04:44:52;7.32;;;3.60;;
49416;SDS011;35290;39.550;8.786;2023-05-07T04:47:25;7.00;;;3.45;;
49416;SDS011;35290;39.550;8.786;2023-05-07T04:49:51;8.70;;;3.80;;
49416;SDS011;35290;39.550;8.786;2023-05-07T04:52:18;7.18;;;3.42;;
49416;SDS011;35290;39.550;8.786;2023-05-07T04:54:44;4.80;;;3.30;;
49416;SDS011;35290;39.550;8.786;2023-05-07T04:57:10;6.13;;;3.90;;
49416;SDS011;35290;39.550;8.786;2023-05-07T04:59:35;6.78;;;3.63;;
49416;SDS011;35290;39.550;8.786;2023-05-07T05:02:02;5.10;;;3.60;;
49416;SDS011;35290;39.550;8.786;2023-05-07T05:04:29;7.45;;;3.70;;
49416;SDS011;35290;39.550;8.786;2023-05-07T05:06:55;5.60;;;3.50;;
49416;SDS011;35290;39.550;8.786;2023-05-07T05:09:21;4.18;;;3.35;;
49416;SDS011;35290;39.550;8.786;2023-05-07T05:11:47;4.55;;;3.05;;
49416;SDS011;35290;39.550;8.786;2023-05-07T05:14:13;6.30;;;3.60;;
49416;SDS011;35290;39.550;8.786;2023-05-07T05:19:41;4.15;;;3.50;;
49416;SDS011;35290;39.550;8.786;2023-05-07T05:22:07;5.55;;;3.60;;
49416;SDS011;35290;39.550;8.786;2023-05-07T05:24:33;5.82;;;3.45;;
49416;SDS011;35290;39.550;8.786;2023-05-07T05:26:59;5.60;;;3.60;;
49416;SDS011;35290;39.550;8.786;2023-05-07T05:29:26;7.03;;;3.13;;
49416;SDS011;35290;39.550;8.786;2023-05-07T05:31:52;4.57;;;3.50;;
49416;SDS011;35290;39.550;8.786;2023-05-07T05:34:18;5.97;;;3.50;;
49416;SDS011;35290;39.550;8.786;2023-05-07T05:39:50;10.85;;;3.75;;
49416;SDS011;35290;39.550;8.786;2023-05-07T05:42:16;6.65;;;3.70;;
49416;SDS011;35290;39.550;8.786;2023-05-07T05:44:41;5.05;;;3.50;;
49416;SDS011;35290;39.550;8.786;2023-05-07T05:47:07;6.85;;;3.55;;
49416;SDS011;35290;39.550;8.786;2023-05-07T05:49:33;6.88;;;3.25;;
49416;SDS011;35290;39.550;8.786;2023-05-07T05:51:59;6.65;;;2.85;;
49416;SDS011;35290;39.550;8.786;2023-05-07T05:54:25;4.68;;;3.17;;
49416;SDS011;35290;39.550;8.786;2023-05-07T05:59:54;3.90;;;3.47;;
49416;SDS011;35290;39.550;8.786;2023-05-07T06:05:23;5.38;;;3.83;;
49416;SDS011;35290;39.550;8.786;2023-05-07T06:07:49;5.88;;;3.60;;
49416;SDS011;35290;39.550;8.786;2023-05-07T06:10:15;7.25;;;3.80;;
49416;SDS011;35290;39.550;8.786;2023-05-07T06:12:40;8.05;;;3.50;;
49416;SDS011;35290;39.550;8.786;2023-05-07T06:15:06;8.80;;;3.47;;
49416;SDS011;35290;39.550;8.786;2023-05-07T06:17:32;4.60;;;3.50;;
49416;SDS011;35290;39.550;8.786;2023-05-07T06:19:58;5.28;;;3.63;;
49416;SDS011;35290;39.550;8.786;2023-05-07T06:22:23;5.15;;;3.70;;
49416;SDS011;35290;39.550;8.786;2023-05-07T06:27:52;7.03;;;3.38;;
49416;SDS011;35290;39.550;8.786;2023-05-07T06:33:21;7.72;;;3.55;;
49416;SDS011;35290;39.550;8.786;2023-05-07T06:38:50;4.90;;;3.17;;
49416;SDS011;35290;39.550;8.786;2023-05-07T06:41:16;4.85;;;3.05;;
49416;SDS011;35290;39.550;8.786;2023-05-07T06:43:41;7.57;;;3.35;;
49416;SDS011;35290;39.550;8.786;2023-05-07T06:57:03;8.27;;;2.90;;
49416;SDS011;35290;39.550;8.786;2023-05-07T06:59:29;5.90;;;3.20;;
49416;SDS011;35290;39.550;8.786;2023-05-07T07:01:55;3.95;;;2.97;;
49416;SDS011;35290;39.550;8.786;2023-05-07T07:04:21;5.43;;;3.30;;
49416;SDS011;35290;39.550;8.786;2023-05-07T07:09:52;7.00;;;3.33;;
49416;SDS011;35290;39.550;8.786;2023-05-07T07:17:46;4.63;;;3.13;;
49416;SDS011;35290;39.550;8.786;2023-05-07T07:20:11;7.95;;;3.20;;
49416;SDS011;35290;39.550;8.786;2023-05-07T07:22:37;8.38;;;3.20;;
49416;SDS011;35290;39.550;8.786;2023-05-07T07:25:03;4.78;;;3.10;;
49416;SDS011;35290;39.550;8.786;2023-05-07T07:27:29;4.32;;;3.22;;
49416;SDS011;35290;39.550;8.786;2023-05-07T07:29:55;3.72;;;3.15;;
49416;SDS011;35290;39.550;8.786;2023-05-07T07:32:21;6.20;;;3.22;;
49416;SDS011;35290;39.550;8.786;2023-05-07T07:34:47;4.85;;;3.25;;
49416;SDS011;35290;39.550;8.786;2023-05-07T07:37:13;5.72;;;3.03;;
49416;SDS011;35290;39.550;8.786;2023-05-07T07:39:38;7.28;;;2.92;;
49416;SDS011;35290;39.550;8.786;2023-05-07T07:42:05;5.93;;;2.92;;
49416;SDS011;35290;39.550;8.786;2023-05-07T07:44:31;4.28;;;2.90;;
49416;SDS011;35290;39.550;8.786;2023-05-07T07:46:56;7.45;;;3.28;;
49416;SDS011;35290;39.550;8.786;2023-05-07T07:49:22;5.43;;;3.13;;
49416;SDS011;35290;39.550;8.786;2023-05-07T07:51:48;5.20;;;3.20;;
49416;SDS011;35290;39.550;8.786;2023-05-07T07:54:14;6.82;;;3.25;;
49416;SDS011;35290;39.550;8.786;2023-05-07T07:59:43;5.22;;;2.72;;
49416;SDS011;35290;39.550;8.786;2023-05-07T08:02:09;4.93;;;2.88;;
49416;SDS011;35290;39.550;8.786;2023-05-07T08:04:35;4.78;;;3.05;;
49416;SDS011;35290;39.550;8.786;2023-05-07T08:07:02;4.43;;;2.90;;
49416;SDS011;35290;39.550;8.786;2023-05-07T08:09:28;7.55;;;3.22;;
49416;SDS011;35290;39.550;8.786;2023-05-07T08:11:54;7.05;;;2.72;;
49416;SDS011;35290;39.550;8.786;2023-05-07T08:14:19;5.15;;;3.05;;
49416;SDS011;35290;39.550;8.786;2023-05-07T08:16:45;4.00;;;2.60;;
49416;SDS011;35290;39.550;8.786;2023-05-07T08:19:12;3.63;;;2.60;;
49416;SDS011;35290;39.550;8.786;2023-05-07T08:21:39;3.78;;;2.80;;
49416;SDS011;35290;39.550;8.786;2023-05-07T08:24:05;3.30;;;2.78;;
49416;SDS011;35290;39.550;8.786;2023-05-07T08:26:31;4.47;;;2.70;;
49416;SDS011;35290;39.550;8.786;2023-05-07T08:28:57;4.57;;;2.55;;
49416;SDS011;35290;39.550;8.786;2023-05-07T08:31:23;4.10;;;2.70;;
49416;SDS011;35290;39.550;8.786;2023-05-07T08:33:49;5.13;;;2.45;;
49416;SDS011;35290;39.550;8.786;2023-05-07T08:36:15;3.75;;;2.55;;
49416;SDS011;35290;39.550;8.786;2023-05-07T08:38:41;4.55;;;2.40;;
49416;SDS011;35290;39.550;8.786;2023-05-07T08:41:09;4.25;;;2.53;;
49416;SDS011;35290;39.550;8.786;2023-05-07T08:43:38;3.78;;;2.33;;
49416;SDS011;35290;39.550;8.786;2023-05-07T08:49:09;2.95;;;2.67;;
49416;SDS011;35290;39.550;8.786;2023-05-07T08:54:37;3.78;;;2.08;;
49416;SDS011;35290;39.550;8.786;2023-05-07T08:57:04;2.20;;;1.95;;
49416;SDS011;35290;39.550;8.786;2023-05-07T08:59:29;3.88;;;2.30;;
49416;SDS011;35290;39.550;8.786;2023-05-07T09:01:56;4.10;;;2.30;;
49416;SDS011;35290;39.550;8.786;2023-05-07T09:04:21;4.90;;;2.40;;
49416;SDS011;35290;39.550;8.786;2023-05-07T09:06:47;2.35;;;2.15;;
49416;SDS011;35290;39.550;8.786;2023-05-07T09:09:21;2.20;;;2.00;;
49416;SDS011;35290;39.550;8.786;2023-05-07T09:11:47;4.05;;;2.03;;
49416;SDS011;35290;39.550;8.786;2023-05-07T09:14:13;6.45;;;2.30;;
49416;SDS011;35290;39.550;8.786;2023-05-07T09:16:39;3.88;;;2.53;;
49416;SDS011;35290;39.550;8.786;2023-05-07T09:19:05;4.68;;;2.42;;
49416;SDS011;35290;39.550;8.786;2023-05-07T09:21:31;4.70;;;2.60;;
49416;SDS011;35290;39.550;8.786;2023-05-07T09:23:57;3.85;;;2.08;;
49416;SDS011;35290;39.550;8.786;2023-05-07T09:29:25;2.30;;;2.00;;
49416;SDS011;35290;39.550;8.786;2023-05-07T09:31:51;6.25;;;2.30;;
49416;SDS011;35290;39.550;8.786;2023-05-07T09:34:17;3.80;;;2.63;;
49416;SDS011;35290;39.550;8.786;2023-05-07T09:39:46;3.17;;;2.00;;
49416;SDS011;35290;39.550;8.786;2023-05-07T09:42:13;5.32;;;2.10;;
49416;SDS011;35290;39.550;8.786;2023-05-07T09:44:43;2.40;;;1.90;;
49416;SDS011;35290;39.550;8.786;2023-05-07T09:47:10;2.45;;;2.25;;
49416;SDS011;35290;39.550;8.786;2023-05-07T09:49:36;3.40;;;2.13;;
49416;SDS011;35290;39.550;8.786;2023-05-07T09:52:03;2.85;;;2.00;;
49416;SDS011;35290;39.550;8.786;2023-05-07T09:54:34;13.15;;;3.15;;
49416;SDS011;35290;39.550;8.786;2023-05-07T10:00:06;3.85;;;1.98;;
49416;SDS011;35290;39.550;8.786;2023-05-07T10:02:33;3.38;;;2.00;;
49416;SDS011;35290;39.550;8.786;2023-05-07T10:08:04;6.35;;;2.00;;
49416;SDS011;35290;39.550;8.786;2023-05-07T10:13:37;3.33;;;2.10;;
49416;SDS011;35290;39.550;8.786;2023-05-07T10:19:06;3.50;;;1.60;;
49416;SDS011;35290;39.550;8.786;2023-05-07T10:21:45;7.25;;;1.90;;
49416;SDS011;35290;39.550;8.786;2023-05-07T10:30:22;3.42;;;1.55;;
49416;SDS011;35290;39.550;8.786;2023-05-07T10:32:55;3.57;;;1.70;;
49416;SDS011;35290;39.550;8.786;2023-05-07T10:38:33;3.47;;;1.55;;
49416;SDS011;35290;39.550;8.786;2023-05-07T10:41:06;2.83;;;1.40;;
49416;SDS011;35290;39.550;8.786;2023-05-07T10:43:41;2.40;;;1.45;;
49416;SDS011;35290;39.550;8.786;2023-05-07T10:54:21;3.42;;;1.70;;
49416;SDS011;35290;39.550;8.786;2023-05-07T10:59:51;2.03;;;1.60;;
49416;SDS011;35290;39.550;8.786;2023-05-07T11:02:18;3.35;;;1.85;;
49416;SDS011;35290;39.550;8.786;2023-05-07T11:04:44;4.78;;;1.60;;
49416;SDS011;35290;39.550;8.786;2023-05-07T11:12:18;1.80;;;1.70;;
49416;SDS011;35290;39.550;8.786;2023-05-07T13:49:19;3.55;;;2.10;;
49416;SDS011;35290;39.550;8.786;2023-05-07T16:08:22;6.20;;;4.53;;
49416;SDS011;35290;39.550;8.786;2023-05-07T16:10:54;7.78;;;4.22;;
49416;SDS011;35290;39.550;8.786;2023-05-07T16:34:33;7.03;;;3.55;;
49416;SDS011;35290;39.550;8.786;2023-05-07T16:37:00;6.47;;;4.10;;
49416;SDS011;35290;39.550;8.786;2023-05-07T22:32:12;7.60;;;3.58;;
49416;SDS011;35290;39.550;8.786;2023-05-07T22:34:37;9.15;;;3.70;;
49416;SDS011;35290;39.550;8.786;2023-05-07T22:45:35;8.10;;;3.17;;
49416;SDS011;35290;39.550;8.786;2023-05-07T22:48:01;8.43;;;3.30;;
49416;SDS011;35290;39.550;8.786;2023-05-07T22:50:27;11.18;;;3.38;;
49416;SDS011;35290;39.550;8.786;2023-05-07T22:52:53;8.75;;;3.40;;
49416;SDS011;35290;39.550;8.786;2023-05-07T22:58:21;7.43;;;3.00;;
49416;SDS011;35290;39.550;8.786;2023-05-07T23:03:50;9.18;;;3.05;;
49416;SDS011;35290;39.550;8.786;2023-05-07T23:09:19;7.55;;;3.15;;
49416;SDS011;35290;39.550;8.786;2023-05-07T23:11:45;6.55;;;3.08;;
49416;SDS011;35290;39.550;8.786;2023-05-07T23:14:12;8.48;;;3.22;;
49416;SDS011;35290;39.550;8.786;2023-05-07T23:19:40;9.07;;;3.50;;
49416;SDS011;35290;39.550;8.786;2023-05-07T23:22:06;7.25;;;3.03;;
49416;SDS011;35290;39.550;8.786;2023-05-07T23:24:32;10.27;;;3.47;;
49416;SDS011;35290;39.550;8.786;2023-05-07T23:26:58;7.30;;;3.08;;
49416;SDS011;35290;39.550;8.786;2023-05-07T23:29:25;5.93;;;2.78;;
49416;SDS011;35290;39.550;8.786;2023-05-07T23:31:50;7.68;;;2.72;;
49416;SDS011;35290;39.550;8.786;2023-05-07T23:34:16;6.38;;;3.03;;
49416;SDS011;35290;39.550;8.786;2023-05-07T23:36:48;4.82;;;2.75;;
49416;SDS011;35290;39.550;8.786;2023-05-07T23:39:17;3.83;;;2.45;;
49416;SDS011;35290;39.550;8.786;2023-05-07T23:41:43;5.20;;;2.80;;
49416;SDS011;35290;39.550;8.786;2023-05-07T23:44:09;5.18;;;2.55;;
49416;SDS011;35290;39.550;8.786;2023-05-07T23:49:38;6.68;;;3.00;;
49416;SDS011;35290;39.550;8.786;2023-05-07T23:52:04;7.88;;;2.70;;
49416;SDS011;35290;39.550;8.786;2023-05-07T23:54:29;5.63;;;2.90;;
49416;SDS011;35290;39.550;8.786;2023-05-07T23:59:59;5.05;;;3.20;;
